sensor_id;sensor_type;location;lat;lon;timestamp;temperature;humidity
298;DHT22;133;49.626;9.680;2022-08-19T00:00:24;22.30;78.90
298;DHT22;133;49.626;9.680;2022-08-19T00:02:50;22.40;78.80
298;DHT22;133;49.626;9.680;2022-08-19T00:05:17;22.30;78.80
298;DHT22;133;49.626;9.680;2022-08-19T00:07:43;22.20;79.30
298;DHT22;133;49.626;9.680;2022-08-19T00:10:11;22.10;79.50
298;DHT22;133;49.626;9.680;2022-08-19T00:12:37;22.20;79.30
298;DHT22;133;49.626;9.680;2022-08-19T00:15:08;22.10;79.70
298;DHT22;133;49.626;9.680;2022-08-19T00:17:42;22.20;79.40
298;DHT22;133;49.626;9.680;2022-08-19T00:20:11;22.20;79.10
298;DHT22;133;49.626;9.680;2022-08-19T00:22:38;22.10;79.40
298;DHT22;133;49.626;9.680;2022-08-19T00:25:07;22.10;79.40
298;DHT22;133;49.626;9.680;2022-08-19T00:27:33;22.00;79.70
298;DHT22;133;49.626;9.680;2022-08-19T00:29:59;22.00;79.50
298;DHT22;133;49.626;9.680;2022-08-19T00:32:25;22.10;79.50
298;DHT22;133;49.626;9.680;2022-08-19T00:34:52;22.00;79.70
298;DHT22;133;49.626;9.680;2022-08-19T00:37:19;22.00;79.60
298;DHT22;133;49.626;9.680;2022-08-19T00:39:45;22.00;79.50
298;DHT22;133;49.626;9.680;2022-08-19T00:42:10;22.00;79.50
298;DHT22;133;49.626;9.680;2022-08-19T00:44:36;21.90;79.80
298;DHT22;133;49.626;9.680;2022-08-19T00:47:02;21.70;80.30
298;DHT22;133;49.626;9.680;2022-08-19T00:49:35;21.70;80.50
298;DHT22;133;49.626;9.680;2022-08-19T00:52:07;21.70;80.50
298;DHT22;133;49.626;9.680;2022-08-19T00:54:36;21.80;80.30
298;DHT22;133;49.626;9.680;2022-08-19T00:57:06;21.80;80.30
298;DHT22;133;49.626;9.680;2022-08-19T00:59:35;21.80;80.10
298;DHT22;133;49.626;9.680;2022-08-19T01:02:03;21.80;80.20
298;DHT22;133;49.626;9.680;2022-08-19T01:04:29;21.80;80.00
298;DHT22;133;49.626;9.680;2022-08-19T01:06:56;21.80;80.00
298;DHT22;133;49.626;9.680;2022-08-19T01:09:22;21.70;80.00
298;DHT22;133;49.626;9.680;2022-08-19T01:11:48;21.70;80.10
298;DHT22;133;49.626;9.680;2022-08-19T01:14:14;21.70;80.20
298;DHT22;133;49.626;9.680;2022-08-19T01:16:41;21.70;80.20
298;DHT22;133;49.626;9.680;2022-08-19T01:19:18;21.60;80.40
298;DHT22;133;49.626;9.680;2022-08-19T01:22:11;21.60;80.40
298;DHT22;133;49.626;9.680;2022-08-19T01:24:37;21.60;80.30
298;DHT22;133;49.626;9.680;2022-08-19T01:27:07;21.60;80.50
298;DHT22;133;49.626;9.680;2022-08-19T01:29:34;21.60;80.60
298;DHT22;133;49.626;9.680;2022-08-19T01:32:02;21.60;80.70
298;DHT22;133;49.626;9.680;2022-08-19T01:34:28;21.50;80.60
298;DHT22;133;49.626;9.680;2022-08-19T01:36:53;21.50;80.60
298;DHT22;133;49.626;9.680;2022-08-19T01:39:22;21.50;80.80
298;DHT22;133;49.626;9.680;2022-08-19T01:41:49;21.50;80.90
298;DHT22;133;49.626;9.680;2022-08-19T01:44:15;21.50;80.90
298;DHT22;133;49.626;9.680;2022-08-19T01:46:42;21.50;81.10
298;DHT22;133;49.626;9.680;2022-08-19T01:49:09;21.40;81.00
298;DHT22;133;49.626;9.680;2022-08-19T01:51:36;21.50;80.60
298;DHT22;133;49.626;9.680;2022-08-19T01:54:02;21.50;80.50
298;DHT22;133;49.626;9.680;2022-08-19T01:56:28;21.40;81.00
298;DHT22;133;49.626;9.680;2022-08-19T01:58:57;21.30;81.20
298;DHT22;133;49.626;9.680;2022-08-19T02:01:24;21.40;80.90
298;DHT22;133;49.626;9.680;2022-08-19T02:03:50;21.40;81.00
298;DHT22;133;49.626;9.680;2022-08-19T02:06:19;21.30;81.10
298;DHT22;133;49.626;9.680;2022-08-19T02:08:45;21.30;81.30
298;DHT22;133;49.626;9.680;2022-08-19T02:11:19;21.30;81.30
298;DHT22;133;49.626;9.680;2022-08-19T02:13:46;21.30;81.30
298;DHT22;133;49.626;9.680;2022-08-19T02:16:11;21.30;81.40
298;DHT22;133;49.626;9.680;2022-08-19T02:18:37;21.30;81.30
298;DHT22;133;49.626;9.680;2022-08-19T02:21:03;21.30;81.50
298;DHT22;133;49.626;9.680;2022-08-19T02:23:28;21.20;81.70
298;DHT22;133;49.626;9.680;2022-08-19T02:25:54;21.20;81.70
298;DHT22;133;49.626;9.680;2022-08-19T02:28:20;21.20;81.70
298;DHT22;133;49.626;9.680;2022-08-19T02:30:47;21.20;81.60
298;DHT22;133;49.626;9.680;2022-08-19T02:33:13;21.20;81.70
298;DHT22;133;49.626;9.680;2022-08-19T02:35:42;21.20;81.70
298;DHT22;133;49.626;9.680;2022-08-19T02:38:08;21.30;81.40
298;DHT22;133;49.626;9.680;2022-08-19T02:41:04;21.20;81.50
298;DHT22;133;49.626;9.680;2022-08-19T02:43:32;21.20;81.50
298;DHT22;133;49.626;9.680;2022-08-19T02:45:58;21.20;81.60
298;DHT22;133;49.626;9.680;2022-08-19T02:48:25;21.10;81.70
298;DHT22;133;49.626;9.680;2022-08-19T02:50:52;21.00;82.00
298;DHT22;133;49.626;9.680;2022-08-19T02:53:24;21.00;82.10
298;DHT22;133;49.626;9.680;2022-08-19T02:55:51;21.10;81.80
298;DHT22;133;49.626;9.680;2022-08-19T02:58:18;21.00;82.20
298;DHT22;133;49.626;9.680;2022-08-19T03:00:49;21.00;82.20
298;DHT22;133;49.626;9.680;2022-08-19T03:03:16;21.10;82.10
298;DHT22;133;49.626;9.680;2022-08-19T03:05:42;21.00;82.20
298;DHT22;133;49.626;9.680;2022-08-19T03:08:09;21.00;82.10
298;DHT22;133;49.626;9.680;2022-08-19T03:10:43;21.00;82.20
298;DHT22;133;49.626;9.680;2022-08-19T03:13:11;20.90;82.50
298;DHT22;133;49.626;9.680;2022-08-19T03:15:42;20.90;82.70
298;DHT22;133;49.626;9.680;2022-08-19T03:18:08;20.90;82.60
298;DHT22;133;49.626;9.680;2022-08-19T03:20:43;20.90;82.50
298;DHT22;133;49.626;9.680;2022-08-19T03:23:10;20.90;82.70
298;DHT22;133;49.626;9.680;2022-08-19T03:25:38;20.90;82.60
298;DHT22;133;49.626;9.680;2022-08-19T03:28:05;20.70;83.20
298;DHT22;133;49.626;9.680;2022-08-19T03:30:31;20.70;83.30
298;DHT22;133;49.626;9.680;2022-08-19T03:32:56;20.70;83.40
298;DHT22;133;49.626;9.680;2022-08-19T03:35:22;20.70;83.30
298;DHT22;133;49.626;9.680;2022-08-19T03:37:48;20.60;83.60
298;DHT22;133;49.626;9.680;2022-08-19T03:40:13;20.70;83.60
298;DHT22;133;49.626;9.680;2022-08-19T03:42:39;20.60;83.60
298;DHT22;133;49.626;9.680;2022-08-19T03:45:08;20.70;83.40
298;DHT22;133;49.626;9.680;2022-08-19T03:47:33;20.70;83.40
298;DHT22;133;49.626;9.680;2022-08-19T03:49:59;20.60;83.50
298;DHT22;133;49.626;9.680;2022-08-19T03:52:25;20.70;83.50
298;DHT22;133;49.626;9.680;2022-08-19T03:54:50;20.70;83.30
298;DHT22;133;49.626;9.680;2022-08-19T03:57:16;20.70;83.30
298;DHT22;133;49.626;9.680;2022-08-19T03:59:42;20.70;83.40
298;DHT22;133;49.626;9.680;2022-08-19T04:02:11;20.70;83.50
298;DHT22;133;49.626;9.680;2022-08-19T04:04:38;20.70;83.50
298;DHT22;133;49.626;9.680;2022-08-19T04:07:05;20.60;83.60
298;DHT22;133;49.626;9.680;2022-08-19T04:09:34;20.60;83.50
298;DHT22;133;49.626;9.680;2022-08-19T04:11:59;20.60;83.40
298;DHT22;133;49.626;9.680;2022-08-19T04:14:27;20.60;83.50
298;DHT22;133;49.626;9.680;2022-08-19T04:16:56;20.60;83.60
298;DHT22;133;49.626;9.680;2022-08-19T04:19:21;20.60;83.30
298;DHT22;133;49.626;9.680;2022-08-19T04:21:51;20.60;83.50
298;DHT22;133;49.626;9.680;2022-08-19T04:24:18;20.60;83.60
298;DHT22;133;49.626;9.680;2022-08-19T04:26:44;20.50;83.90
298;DHT22;133;49.626;9.680;2022-08-19T04:29:14;20.50;84.00
298;DHT22;133;49.626;9.680;2022-08-19T04:31:40;20.50;84.00
298;DHT22;133;49.626;9.680;2022-08-19T04:34:09;20.60;83.90
298;DHT22;133;49.626;9.680;2022-08-19T04:36:37;20.60;83.80
298;DHT22;133;49.626;9.680;2022-08-19T04:39:15;20.60;83.70
298;DHT22;133;49.626;9.680;2022-08-19T04:41:42;20.60;83.90
298;DHT22;133;49.626;9.680;2022-08-19T04:44:27;20.60;84.00
298;DHT22;133;49.626;9.680;2022-08-19T04:46:56;20.60;83.90
298;DHT22;133;49.626;9.680;2022-08-19T04:49:22;20.70;84.00
298;DHT22;133;49.626;9.680;2022-08-19T04:51:49;20.70;83.70
298;DHT22;133;49.626;9.680;2022-08-19T04:54:17;20.70;83.80
298;DHT22;133;49.626;9.680;2022-08-19T04:56:45;20.80;83.50
298;DHT22;133;49.626;9.680;2022-08-19T04:59:11;20.90;83.10
298;DHT22;133;49.626;9.680;2022-08-19T05:01:37;20.90;83.30
298;DHT22;133;49.626;9.680;2022-08-19T05:04:05;21.00;83.30
298;DHT22;133;49.626;9.680;2022-08-19T05:06:32;21.00;83.30
298;DHT22;133;49.626;9.680;2022-08-19T05:09:08;21.10;82.80
298;DHT22;133;49.626;9.680;2022-08-19T05:11:36;21.10;82.60
298;DHT22;133;49.626;9.680;2022-08-19T05:14:04;21.00;82.60
298;DHT22;133;49.626;9.680;2022-08-19T05:16:30;21.10;82.30
298;DHT22;133;49.626;9.680;2022-08-19T05:18:56;21.20;82.30
298;DHT22;133;49.626;9.680;2022-08-19T05:21:41;21.10;82.60
298;DHT22;133;49.626;9.680;2022-08-19T05:24:27;21.20;82.40
298;DHT22;133;49.626;9.680;2022-08-19T05:26:54;21.30;82.20
298;DHT22;133;49.626;9.680;2022-08-19T05:29:23;21.30;82.30
298;DHT22;133;49.626;9.680;2022-08-19T05:31:50;21.30;82.30
298;DHT22;133;49.626;9.680;2022-08-19T05:34:18;21.20;82.40
298;DHT22;133;49.626;9.680;2022-08-19T05:36:47;21.30;82.40
298;DHT22;133;49.626;9.680;2022-08-19T05:39:18;21.30;82.10
298;DHT22;133;49.626;9.680;2022-08-19T05:41:57;21.20;82.40
298;DHT22;133;49.626;9.680;2022-08-19T05:44:28;21.30;82.30
298;DHT22;133;49.626;9.680;2022-08-19T05:47:01;21.40;82.20
298;DHT22;133;49.626;9.680;2022-08-19T05:49:28;21.40;82.00
298;DHT22;133;49.626;9.680;2022-08-19T05:51:54;21.50;81.40
298;DHT22;133;49.626;9.680;2022-08-19T05:54:22;21.50;81.40
298;DHT22;133;49.626;9.680;2022-08-19T05:56:52;21.60;81.40
298;DHT22;133;49.626;9.680;2022-08-19T05:59:19;21.40;81.90
298;DHT22;133;49.626;9.680;2022-08-19T06:01:47;21.40;82.00
298;DHT22;133;49.626;9.680;2022-08-19T06:04:17;21.40;82.00
298;DHT22;133;49.626;9.680;2022-08-19T06:06:44;21.40;81.90
298;DHT22;133;49.626;9.680;2022-08-19T06:09:10;21.40;82.00
298;DHT22;133;49.626;9.680;2022-08-19T06:11:43;21.50;81.80
298;DHT22;133;49.626;9.680;2022-08-19T06:14:17;21.60;81.60
298;DHT22;133;49.626;9.680;2022-08-19T06:16:44;21.60;81.50
298;DHT22;133;49.626;9.680;2022-08-19T06:19:13;21.70;81.50
298;DHT22;133;49.626;9.680;2022-08-19T06:21:41;21.70;81.40
298;DHT22;133;49.626;9.680;2022-08-19T06:24:10;21.70;81.30
298;DHT22;133;49.626;9.680;2022-08-19T06:26:38;21.60;81.70
298;DHT22;133;49.626;9.680;2022-08-19T06:29:05;21.50;81.80
298;DHT22;133;49.626;9.680;2022-08-19T06:31:33;21.60;81.70
298;DHT22;133;49.626;9.680;2022-08-19T06:34:00;21.40;82.10
298;DHT22;133;49.626;9.680;2022-08-19T06:36:31;21.40;82.30
298;DHT22;133;49.626;9.680;2022-08-19T06:39:09;21.40;82.30
298;DHT22;133;49.626;9.680;2022-08-19T06:41:38;21.40;82.20
298;DHT22;133;49.626;9.680;2022-08-19T06:44:05;21.40;82.40
298;DHT22;133;49.626;9.680;2022-08-19T06:46:31;21.50;82.40
298;DHT22;133;49.626;9.680;2022-08-19T06:48:57;21.50;82.30
298;DHT22;133;49.626;9.680;2022-08-19T06:51:23;21.50;82.20
298;DHT22;133;49.626;9.680;2022-08-19T06:53:51;21.50;82.20
298;DHT22;133;49.626;9.680;2022-08-19T06:56:24;21.60;82.00
298;DHT22;133;49.626;9.680;2022-08-19T06:58:51;21.60;82.00
298;DHT22;133;49.626;9.680;2022-08-19T07:01:19;21.60;82.00
298;DHT22;133;49.626;9.680;2022-08-19T07:03:45;21.60;82.00
298;DHT22;133;49.626;9.680;2022-08-19T07:06:14;21.70;81.90
298;DHT22;133;49.626;9.680;2022-08-19T07:08:46;21.70;82.00
298;DHT22;133;49.626;9.680;2022-08-19T07:11:15;21.70;81.70
298;DHT22;133;49.626;9.680;2022-08-19T07:13:41;21.80;81.60
298;DHT22;133;49.626;9.680;2022-08-19T07:16:15;21.90;81.70
298;DHT22;133;49.626;9.680;2022-08-19T07:18:42;21.90;81.40
298;DHT22;133;49.626;9.680;2022-08-19T07:21:08;22.00;81.30
298;DHT22;133;49.626;9.680;2022-08-19T07:23:34;22.00;81.10
298;DHT22;133;49.626;9.680;2022-08-19T07:26:12;22.00;81.30
298;DHT22;133;49.626;9.680;2022-08-19T07:28:38;22.10;81.10
298;DHT22;133;49.626;9.680;2022-08-19T07:31:06;22.10;81.20
298;DHT22;133;49.626;9.680;2022-08-19T07:33:32;22.00;81.60
298;DHT22;133;49.626;9.680;2022-08-19T07:35:58;22.00;81.70
298;DHT22;133;49.626;9.680;2022-08-19T07:38:24;22.20;81.60
298;DHT22;133;49.626;9.680;2022-08-19T07:40:50;22.40;81.20
298;DHT22;133;49.626;9.680;2022-08-19T07:43:17;22.60;81.30
298;DHT22;133;49.626;9.680;2022-08-19T07:45:51;22.80;80.20
298;DHT22;133;49.626;9.680;2022-08-19T07:48:18;23.00;79.50
298;DHT22;133;49.626;9.680;2022-08-19T07:50:44;23.10;79.30
298;DHT22;133;49.626;9.680;2022-08-19T07:53:10;23.30;79.00
298;DHT22;133;49.626;9.680;2022-08-19T07:55:37;23.40;78.70
298;DHT22;133;49.626;9.680;2022-08-19T07:58:03;23.60;78.10
298;DHT22;133;49.626;9.680;2022-08-19T08:00:30;23.70;77.80
298;DHT22;133;49.626;9.680;2022-08-19T08:02:56;23.70;77.60
298;DHT22;133;49.626;9.680;2022-08-19T08:05:23;23.50;77.90
298;DHT22;133;49.626;9.680;2022-08-19T08:08:08;23.50;77.80
298;DHT22;133;49.626;9.680;2022-08-19T08:10:52;23.70;78.10
298;DHT22;133;49.626;9.680;2022-08-19T08:13:18;23.80;77.70
298;DHT22;133;49.626;9.680;2022-08-19T08:15:44;23.80;77.30
298;DHT22;133;49.626;9.680;2022-08-19T08:18:10;23.90;77.20
298;DHT22;133;49.626;9.680;2022-08-19T08:20:36;24.00;77.10
298;DHT22;133;49.626;9.680;2022-08-19T08:23:02;24.00;76.80
298;DHT22;133;49.626;9.680;2022-08-19T08:25:46;24.20;76.70
298;DHT22;133;49.626;9.680;2022-08-19T08:28:14;24.30;76.40
298;DHT22;133;49.626;9.680;2022-08-19T08:30:39;24.30;76.00
298;DHT22;133;49.626;9.680;2022-08-19T08:33:07;24.20;76.40
298;DHT22;133;49.626;9.680;2022-08-19T08:35:33;24.20;76.50
298;DHT22;133;49.626;9.680;2022-08-19T08:37:59;24.20;76.40
298;DHT22;133;49.626;9.680;2022-08-19T08:45:28;24.10;76.80
298;DHT22;133;49.626;9.680;2022-08-19T08:47:57;24.10;76.90
298;DHT22;133;49.626;9.680;2022-08-19T08:50:41;24.20;76.60
298;DHT22;133;49.626;9.680;2022-08-19T08:53:08;24.10;76.70
298;DHT22;133;49.626;9.680;2022-08-19T08:55:36;24.00;76.90
298;DHT22;133;49.626;9.680;2022-08-19T08:58:06;23.80;77.70
298;DHT22;133;49.626;9.680;2022-08-19T09:00:37;23.90;77.30
298;DHT22;133;49.626;9.680;2022-08-19T09:03:07;24.00;77.30
298;DHT22;133;49.626;9.680;2022-08-19T09:05:40;24.00;77.10
298;DHT22;133;49.626;9.680;2022-08-19T09:08:39;24.20;76.90
298;DHT22;133;49.626;9.680;2022-08-19T09:11:10;24.40;76.70
298;DHT22;133;49.626;9.680;2022-08-19T09:13:53;24.50;76.20
298;DHT22;133;49.626;9.680;2022-08-19T09:16:24;24.70;75.50
298;DHT22;133;49.626;9.680;2022-08-19T09:18:55;24.90;74.60
298;DHT22;133;49.626;9.680;2022-08-19T09:21:23;24.90;74.40
298;DHT22;133;49.626;9.680;2022-08-19T09:23:50;24.90;74.70
298;DHT22;133;49.626;9.680;2022-08-19T09:26:19;25.00;74.00
298;DHT22;133;49.626;9.680;2022-08-19T09:28:47;24.90;73.90
298;DHT22;133;49.626;9.680;2022-08-19T09:31:23;24.90;73.80
298;DHT22;133;49.626;9.680;2022-08-19T09:33:51;24.90;73.70
298;DHT22;133;49.626;9.680;2022-08-19T09:36:20;24.70;73.90
298;DHT22;133;49.626;9.680;2022-08-19T09:38:48;24.50;74.20
298;DHT22;133;49.626;9.680;2022-08-19T09:41:18;24.30;74.70
298;DHT22;133;49.626;9.680;2022-08-19T09:43:47;24.40;74.80
298;DHT22;133;49.626;9.680;2022-08-19T09:46:13;24.50;74.60
298;DHT22;133;49.626;9.680;2022-08-19T09:48:41;24.60;74.70
298;DHT22;133;49.626;9.680;2022-08-19T09:51:11;24.80;73.70
298;DHT22;133;49.626;9.680;2022-08-19T09:53:41;24.60;73.70
298;DHT22;133;49.626;9.680;2022-08-19T09:56:07;24.90;73.20
298;DHT22;133;49.626;9.680;2022-08-19T09:58:34;25.00;73.10
298;DHT22;133;49.626;9.680;2022-08-19T10:01:01;25.20;72.10
298;DHT22;133;49.626;9.680;2022-08-19T10:03:28;25.50;71.80
298;DHT22;133;49.626;9.680;2022-08-19T10:05:55;25.80;69.50
298;DHT22;133;49.626;9.680;2022-08-19T10:08:27;26.00;68.50
298;DHT22;133;49.626;9.680;2022-08-19T10:10:54;26.40;67.60
298;DHT22;133;49.626;9.680;2022-08-19T10:13:26;26.80;66.30
298;DHT22;133;49.626;9.680;2022-08-19T10:15:54;27.00;65.30
298;DHT22;133;49.626;9.680;2022-08-19T10:18:22;26.90;65.50
298;DHT22;133;49.626;9.680;2022-08-19T10:20:50;26.70;66.50
298;DHT22;133;49.626;9.680;2022-08-19T10:23:16;26.60;66.90
298;DHT22;133;49.626;9.680;2022-08-19T10:25:42;26.50;65.80
298;DHT22;133;49.626;9.680;2022-08-19T10:28:09;26.40;65.80
298;DHT22;133;49.626;9.680;2022-08-19T10:30:38;26.20;65.80
298;DHT22;133;49.626;9.680;2022-08-19T10:33:05;26.10;65.90
298;DHT22;133;49.626;9.680;2022-08-19T10:35:30;26.00;66.30
298;DHT22;133;49.626;9.680;2022-08-19T10:37:56;25.90;66.50
298;DHT22;133;49.626;9.680;2022-08-19T10:40:27;25.80;66.80
298;DHT22;133;49.626;9.680;2022-08-19T10:42:54;25.80;67.00
298;DHT22;133;49.626;9.680;2022-08-19T10:45:20;25.70;66.90
298;DHT22;133;49.626;9.680;2022-08-19T10:47:47;25.70;67.30
298;DHT22;133;49.626;9.680;2022-08-19T10:50:13;25.80;66.60
298;DHT22;133;49.626;9.680;2022-08-19T10:52:57;26.00;66.40
298;DHT22;133;49.626;9.680;2022-08-19T10:55:24;26.30;65.40
298;DHT22;133;49.626;9.680;2022-08-19T10:58:11;26.50;65.20
298;DHT22;133;49.626;9.680;2022-08-19T11:00:37;26.70;63.80
298;DHT22;133;49.626;9.680;2022-08-19T11:03:03;27.10;63.80
298;DHT22;133;49.626;9.680;2022-08-19T11:05:28;27.30;63.50
298;DHT22;133;49.626;9.680;2022-08-19T11:07:55;27.70;62.90
298;DHT22;133;49.626;9.680;2022-08-19T11:10:21;27.90;62.50
298;DHT22;133;49.626;9.680;2022-08-19T11:12:47;28.00;63.20
298;DHT22;133;49.626;9.680;2022-08-19T11:15:13;28.60;62.10
298;DHT22;133;49.626;9.680;2022-08-19T11:17:39;28.60;61.90
298;DHT22;133;49.626;9.680;2022-08-19T11:20:10;28.90;61.60
298;DHT22;133;49.626;9.680;2022-08-19T11:22:36;28.90;60.80
298;DHT22;133;49.626;9.680;2022-08-19T11:25:02;28.80;61.10
298;DHT22;133;49.626;9.680;2022-08-19T11:27:28;28.80;61.00
298;DHT22;133;49.626;9.680;2022-08-19T11:29:54;29.00;60.10
298;DHT22;133;49.626;9.680;2022-08-19T11:32:20;28.90;59.90
298;DHT22;133;49.626;9.680;2022-08-19T11:34:45;28.90;58.90
298;DHT22;133;49.626;9.680;2022-08-19T11:37:11;28.60;59.00
298;DHT22;133;49.626;9.680;2022-08-19T11:39:37;28.50;59.10
298;DHT22;133;49.626;9.680;2022-08-19T11:42:05;28.30;59.60
298;DHT22;133;49.626;9.680;2022-08-19T11:44:52;28.40;59.40
298;DHT22;133;49.626;9.680;2022-08-19T11:47:18;28.20;59.40
298;DHT22;133;49.626;9.680;2022-08-19T11:49:46;28.10;59.50
298;DHT22;133;49.626;9.680;2022-08-19T11:52:11;27.80;59.50
298;DHT22;133;49.626;9.680;2022-08-19T11:54:37;27.50;60.60
298;DHT22;133;49.626;9.680;2022-08-19T11:57:04;27.40;60.90
298;DHT22;133;49.626;9.680;2022-08-19T11:59:29;27.70;59.90
298;DHT22;133;49.626;9.680;2022-08-19T12:01:55;28.10;59.00
298;DHT22;133;49.626;9.680;2022-08-19T12:04:22;28.10;58.70
298;DHT22;133;49.626;9.680;2022-08-19T12:06:55;28.00;59.10
298;DHT22;133;49.626;9.680;2022-08-19T12:09:21;27.60;59.60
298;DHT22;133;49.626;9.680;2022-08-19T12:11:47;27.60;60.00
298;DHT22;133;49.626;9.680;2022-08-19T12:14:13;27.50;60.30
298;DHT22;133;49.626;9.680;2022-08-19T12:16:39;27.80;60.20
298;DHT22;133;49.626;9.680;2022-08-19T12:19:06;27.90;60.10
298;DHT22;133;49.626;9.680;2022-08-19T12:21:34;27.80;59.60
298;DHT22;133;49.626;9.680;2022-08-19T12:24:02;28.10;59.50
298;DHT22;133;49.626;9.680;2022-08-19T12:26:29;28.20;58.70
298;DHT22;133;49.626;9.680;2022-08-19T12:28:57;28.60;58.40
298;DHT22;133;49.626;9.680;2022-08-19T12:31:25;28.90;57.50
298;DHT22;133;49.626;9.680;2022-08-19T12:33:51;29.40;56.50
298;DHT22;133;49.626;9.680;2022-08-19T12:36:18;30.00;55.00
298;DHT22;133;49.626;9.680;2022-08-19T12:38:44;30.00;55.10
298;DHT22;133;49.626;9.680;2022-08-19T12:41:12;29.50;55.60
298;DHT22;133;49.626;9.680;2022-08-19T12:43:38;29.80;54.90
298;DHT22;133;49.626;9.680;2022-08-19T12:46:05;29.90;54.60
298;DHT22;133;49.626;9.680;2022-08-19T12:48:32;29.70;54.80
298;DHT22;133;49.626;9.680;2022-08-19T12:50:58;29.70;55.30
298;DHT22;133;49.626;9.680;2022-08-19T12:53:24;29.70;55.00
298;DHT22;133;49.626;9.680;2022-08-19T12:55:57;29.40;55.90
298;DHT22;133;49.626;9.680;2022-08-19T12:58:23;29.10;56.10
298;DHT22;133;49.626;9.680;2022-08-19T13:00:49;28.80;56.90
298;DHT22;133;49.626;9.680;2022-08-19T13:03:15;28.60;56.50
298;DHT22;133;49.626;9.680;2022-08-19T13:05:41;28.40;57.20
298;DHT22;133;49.626;9.680;2022-08-19T13:08:07;28.50;57.50
298;DHT22;133;49.626;9.680;2022-08-19T13:10:35;28.40;57.50
298;DHT22;133;49.626;9.680;2022-08-19T13:13:06;28.10;57.60
298;DHT22;133;49.626;9.680;2022-08-19T13:15:38;28.10;57.90
298;DHT22;133;49.626;9.680;2022-08-19T13:18:07;28.50;58.00
298;DHT22;133;49.626;9.680;2022-08-19T13:20:35;29.00;56.90
298;DHT22;133;49.626;9.680;2022-08-19T13:23:01;29.40;56.10
298;DHT22;133;49.626;9.680;2022-08-19T13:25:27;29.70;55.60
298;DHT22;133;49.626;9.680;2022-08-19T13:27:53;29.60;55.90
298;DHT22;133;49.626;9.680;2022-08-19T13:30:21;29.90;54.90
298;DHT22;133;49.626;9.680;2022-08-19T13:33:07;30.00;55.00
298;DHT22;133;49.626;9.680;2022-08-19T13:35:48;29.70;55.30
298;DHT22;133;49.626;9.680;2022-08-19T13:38:17;29.80;55.70
298;DHT22;133;49.626;9.680;2022-08-19T13:40:44;30.00;54.80
298;DHT22;133;49.626;9.680;2022-08-19T13:43:10;30.10;54.60
298;DHT22;133;49.626;9.680;2022-08-19T13:45:36;30.10;55.10
298;DHT22;133;49.626;9.680;2022-08-19T13:48:05;30.10;55.20
298;DHT22;133;49.626;9.680;2022-08-19T13:50:41;30.20;55.20
298;DHT22;133;49.626;9.680;2022-08-19T13:53:08;30.10;55.00
298;DHT22;133;49.626;9.680;2022-08-19T13:55:37;30.20;55.00
298;DHT22;133;49.626;9.680;2022-08-19T13:58:05;30.00;55.00
298;DHT22;133;49.626;9.680;2022-08-19T14:01:03;30.30;54.80
298;DHT22;133;49.626;9.680;2022-08-19T14:03:32;30.80;53.60
298;DHT22;133;49.626;9.680;2022-08-19T14:05:59;31.00;53.00
298;DHT22;133;49.626;9.680;2022-08-19T14:08:25;31.00;53.30
298;DHT22;133;49.626;9.680;2022-08-19T14:10:53;30.90;53.20
298;DHT22;133;49.626;9.680;2022-08-19T14:13:21;30.90;53.80
298;DHT22;133;49.626;9.680;2022-08-19T14:15:47;30.90;53.30
298;DHT22;133;49.626;9.680;2022-08-19T14:18:15;30.70;53.00
298;DHT22;133;49.626;9.680;2022-08-19T14:20:41;30.80;53.90
298;DHT22;133;49.626;9.680;2022-08-19T14:23:06;30.90;53.10
298;DHT22;133;49.626;9.680;2022-08-19T14:25:33;30.90;53.50
298;DHT22;133;49.626;9.680;2022-08-19T14:27:59;30.90;52.80
298;DHT22;133;49.626;9.680;2022-08-19T14:30:29;30.70;52.70
298;DHT22;133;49.626;9.680;2022-08-19T14:32:58;30.70;53.30
298;DHT22;133;49.626;9.680;2022-08-19T14:35:25;30.60;53.50
298;DHT22;133;49.626;9.680;2022-08-19T14:37:52;30.60;53.80
298;DHT22;133;49.626;9.680;2022-08-19T14:40:22;30.60;53.70
298;DHT22;133;49.626;9.680;2022-08-19T14:43:06;30.50;53.20
298;DHT22;133;49.626;9.680;2022-08-19T14:45:35;30.40;53.80
298;DHT22;133;49.626;9.680;2022-08-19T14:48:01;30.30;53.80
298;DHT22;133;49.626;9.680;2022-08-19T14:50:27;30.20;54.00
298;DHT22;133;49.626;9.680;2022-08-19T14:53:07;30.10;54.00
298;DHT22;133;49.626;9.680;2022-08-19T14:55:34;29.80;54.30
298;DHT22;133;49.626;9.680;2022-08-19T14:58:00;29.70;54.70
298;DHT22;133;49.626;9.680;2022-08-19T15:00:27;29.60;55.10
298;DHT22;133;49.626;9.680;2022-08-19T15:02:53;29.40;54.90
298;DHT22;133;49.626;9.680;2022-08-19T15:05:22;29.30;55.00
298;DHT22;133;49.626;9.680;2022-08-19T15:07:47;29.20;55.40
298;DHT22;133;49.626;9.680;2022-08-19T15:10:14;29.00;55.40
298;DHT22;133;49.626;9.680;2022-08-19T15:12:41;28.90;55.90
298;DHT22;133;49.626;9.680;2022-08-19T15:15:11;28.80;56.10
298;DHT22;133;49.626;9.680;2022-08-19T15:17:43;28.70;56.30
298;DHT22;133;49.626;9.680;2022-08-19T15:20:10;28.50;56.10
298;DHT22;133;49.626;9.680;2022-08-19T15:22:36;28.40;57.30
298;DHT22;133;49.626;9.680;2022-08-19T15:25:04;28.30;56.70
298;DHT22;133;49.626;9.680;2022-08-19T15:27:30;28.20;57.10
298;DHT22;133;49.626;9.680;2022-08-19T15:29:56;28.10;57.30
298;DHT22;133;49.626;9.680;2022-08-19T15:32:22;28.10;57.60
298;DHT22;133;49.626;9.680;2022-08-19T15:34:48;28.10;57.60
298;DHT22;133;49.626;9.680;2022-08-19T15:37:14;27.90;57.90
298;DHT22;133;49.626;9.680;2022-08-19T15:39:40;27.90;58.00
298;DHT22;133;49.626;9.680;2022-08-19T15:42:06;27.80;57.90
298;DHT22;133;49.626;9.680;2022-08-19T15:44:32;27.80;57.90
298;DHT22;133;49.626;9.680;2022-08-19T15:46:59;27.80;58.20
298;DHT22;133;49.626;9.680;2022-08-19T15:49:24;27.80;58.20
298;DHT22;133;49.626;9.680;2022-08-19T15:51:50;27.80;57.80
298;DHT22;133;49.626;9.680;2022-08-19T15:54:20;27.70;58.90
298;DHT22;133;49.626;9.680;2022-08-19T15:56:47;27.70;58.20
298;DHT22;133;49.626;9.680;2022-08-19T15:59:33;27.60;58.20
298;DHT22;133;49.626;9.680;2022-08-19T16:02:19;27.70;58.50
298;DHT22;133;49.626;9.680;2022-08-19T16:05:07;27.80;58.40
298;DHT22;133;49.626;9.680;2022-08-19T16:07:51;27.90;57.30
298;DHT22;133;49.626;9.680;2022-08-19T16:10:17;27.80;57.80
298;DHT22;133;49.626;9.680;2022-08-19T16:12:43;27.60;57.90
298;DHT22;133;49.626;9.680;2022-08-19T16:15:09;27.60;57.90
298;DHT22;133;49.626;9.680;2022-08-19T16:17:36;27.70;58.10
298;DHT22;133;49.626;9.680;2022-08-19T16:20:04;27.80;58.30
298;DHT22;133;49.626;9.680;2022-08-19T16:22:33;27.90;57.80
298;DHT22;133;49.626;9.680;2022-08-19T16:24:59;27.80;58.20
298;DHT22;133;49.626;9.680;2022-08-19T16:27:25;27.70;58.30
298;DHT22;133;49.626;9.680;2022-08-19T16:29:51;27.70;58.30
298;DHT22;133;49.626;9.680;2022-08-19T16:32:17;27.60;58.90
298;DHT22;133;49.626;9.680;2022-08-19T16:34:44;27.60;58.60
298;DHT22;133;49.626;9.680;2022-08-19T16:37:10;27.50;58.50
298;DHT22;133;49.626;9.680;2022-08-19T16:39:36;27.40;58.50
298;DHT22;133;49.626;9.680;2022-08-19T16:42:02;27.50;58.90
298;DHT22;133;49.626;9.680;2022-08-19T16:44:29;27.50;59.10
298;DHT22;133;49.626;9.680;2022-08-19T16:46:55;27.50;58.60